sensor_id;sensor_type;location;lat;lon;timestamp;pressure;altitude;pressure_sealevel;temperature;humidity
62980;BME280;49075;53.988;27.678;2023-09-19T00:01:15;986.8;;;15.2;63.6
62980;BME280;49075;53.988;27.678;2023-09-19T00:05:45;986.7;;;15.1;63.4
62980;BME280;49075;53.988;27.678;2023-09-19T00:11:05;986.8;;;15.1;63.1
62980;BME280;49075;53.988;27.678;2023-09-19T00:15:45;986.7;;;15.1;62.8
62980;BME280;49075;53.988;27.678;2023-09-19T00:21:01;986.7;;;15.2;62.5
62980;BME280;49075;53.988;27.678;2023-09-19T00:25:43;986.7;;;15.1;62.5
62980;BME280;49075;53.988;27.678;2023-09-19T00:30:45;986.7;;;15.1;62.1
62980;BME280;49075;53.988;27.678;2023-09-19T00:35:46;986.6;;;15;61.9
62980;BME280;49075;53.988;27.678;2023-09-19T00:41:05;986.5;;;15;61.8
62980;BME280;49075;53.988;27.678;2023-09-19T00:45:46;986.4;;;14.9;61.8
62980;BME280;49075;53.988;27.678;2023-09-19T00:50:45;986.4;;;14.9;61.7
62980;BME280;49075;53.988;27.678;2023-09-19T00:56:01;986.3;;;14.9;61.6
62980;BME280;49075;53.988;27.678;2023-09-19T01:01:03;986.3;;;14.9;61.6
62980;BME280;49075;53.988;27.678;2023-09-19T01:05:43;986.2;;;14.8;61.3
62980;BME280;49075;53.988;27.678;2023-09-19T01:10:55;986.2;;;14.9;61
62980;BME280;49075;53.988;27.678;2023-09-19T01:16:03;986.1;;;14.7;61.2
62980;BME280;49075;53.988;27.678;2023-09-19T01:21:05;986.1;;;14.7;61
62980;BME280;49075;53.988;27.678;2023-09-19T01:25:51;986;;;14.7;60.9
62980;BME280;49075;53.988;27.678;2023-09-19T01:30:43;986;;;14.6;61.3
62980;BME280;49075;53.988;27.678;2023-09-19T01:35:55;985.9;;;14.4;61.5
62980;BME280;49075;53.988;27.678;2023-09-19T01:40:47;985.8;;;14.3;61.7
62980;BME280;49075;53.988;27.678;2023-09-19T01:46:09;985.7;;;14.2;61.7
62980;BME280;49075;53.988;27.678;2023-09-19T01:51:20;985.7;;;14.3;61.6
62980;BME280;49075;53.988;27.678;2023-09-19T01:55:46;985.7;;;14.2;61.5
62980;BME280;49075;53.988;27.678;2023-09-19T02:01:03;985.6;;;14.3;61.3
62980;BME280;49075;53.988;27.678;2023-09-19T02:06:17;985.5;;;14.2;61.3
62980;BME280;49075;53.988;27.678;2023-09-19T02:11:39;985.5;;;14.2;61.2
62980;BME280;49075;53.988;27.678;2023-09-19T02:15:55;985.5;;;14.2;61.1
62980;BME280;49075;53.988;27.678;2023-09-19T02:20:43;985.5;;;14.1;61.3
62980;BME280;49075;53.988;27.678;2023-09-19T02:26:01;985.4;;;13.9;61.4
62980;BME280;49075;53.988;27.678;2023-09-19T02:30:43;985.4;;;13.8;61.7
62980;BME280;49075;53.988;27.678;2023-09-19T02:35:45;985.3;;;13.7;61.7
62980;BME280;49075;53.988;27.678;2023-09-19T02:40:49;985.3;;;13.7;61.6
62980;BME280;49075;53.988;27.678;2023-09-19T02:45:57;985.3;;;13.6;61.7
62980;BME280;49075;53.988;27.678;2023-09-19T02:51:21;985.3;;;13.6;61.6
62980;BME280;49075;53.988;27.678;2023-09-19T02:55:43;985.3;;;13.5;61.8
62980;BME280;49075;53.988;27.678;2023-09-19T03:01:10;985.3;;;13.4;61.8
62980;BME280;49075;53.988;27.678;2023-09-19T03:06:07;985.2;;;13.3;62.1
62980;BME280;49075;53.988;27.678;2023-09-19T03:10:55;985.2;;;13.3;62.1
62980;BME280;49075;53.988;27.678;2023-09-19T03:15:55;985.2;;;13.2;62.4
62980;BME280;49075;53.988;27.678;2023-09-19T03:20:52;985.2;;;13.1;62.6
62980;BME280;49075;53.988;27.678;2023-09-19T03:26:03;985.2;;;12.9;62.9
62980;BME280;49075;53.988;27.678;2023-09-19T03:31:35;985.2;;;12.9;63
62980;BME280;49075;53.988;27.678;2023-09-19T03:36:01;985.2;;;12.7;63.4
62980;BME280;49075;53.988;27.678;2023-09-19T03:41:01;985.1;;;12.7;63.7
62980;BME280;49075;53.988;27.678;2023-09-19T03:46:09;985.1;;;12.5;64
62980;BME280;49075;53.988;27.678;2023-09-19T03:50:51;985.1;;;12.4;64.4
62980;BME280;49075;53.988;27.678;2023-09-19T03:55:44;985.1;;;12.3;64.6
62980;BME280;49075;53.988;27.678;2023-09-19T04:01:07;985;;;12.3;64.6
62980;BME280;49075;53.988;27.678;2023-09-19T04:05:53;985;;;12.2;64.8
62980;BME280;49075;53.988;27.678;2023-09-19T04:10:43;984.9;;;12.3;64.5
62980;BME280;49075;53.988;27.678;2023-09-19T04:15:43;984.9;;;12.2;64.8
62980;BME280;49075;53.988;27.678;2023-09-19T04:20:55;984.8;;;12.2;64.9
62980;BME280;49075;53.988;27.678;2023-09-19T04:26:15;984.7;;;12.3;64.7
62980;BME280;49075;53.988;27.678;2023-09-19T04:31:01;984.6;;;12.3;64.5
62980;BME280;49075;53.988;27.678;2023-09-19T04:35:43;984.6;;;12.2;64.8
62980;BME280;49075;53.988;27.678;2023-09-19T04:40:43;984.5;;;12.4;64.5
62980;BME280;49075;53.988;27.678;2023-09-19T04:46:09;984.5;;;12.6;64.1
62980;BME280;49075;53.988;27.678;2023-09-19T04:50:43;984.5;;;12.7;63.4
62980;BME280;49075;53.988;27.678;2023-09-19T04:56:01;984.5;;;12.8;63.2
62980;BME280;49075;53.988;27.678;2023-09-19T05:00:49;984.5;;;13.1;62.5
62980;BME280;49075;53.988;27.678;2023-09-19T05:05:45;984.5;;;13.2;62
62980;BME280;49075;53.988;27.678;2023-09-19T05:10:51;984.4;;;13.5;61.4
62980;BME280;49075;53.988;27.678;2023-09-19T05:15:59;984.4;;;13.7;60.8
62980;BME280;49075;53.988;27.678;2023-09-19T05:21:07;984.5;;;13.8;60.2
62980;BME280;49075;53.988;27.678;2023-09-19T05:26:09;984.5;;;14;59.4
62980;BME280;49075;53.988;27.678;2023-09-19T05:30:45;984.4;;;14.4;58
62980;BME280;49075;53.988;27.678;2023-09-19T05:35:57;984.5;;;14.9;57
62980;BME280;49075;53.988;27.678;2023-09-19T05:40:43;984.4;;;15.6;55
62980;BME280;49075;53.988;27.678;2023-09-19T05:45:51;984.3;;;16;54.2
62980;BME280;49075;53.988;27.678;2023-09-19T05:50:59;984.2;;;16.3;52.5
62980;BME280;49075;53.988;27.678;2023-09-19T05:56:05;984.2;;;16.6;52.2
62980;BME280;49075;53.988;27.678;2023-09-19T06:00:53;984.2;;;16.3;52.3
62980;BME280;49075;53.988;27.678;2023-09-19T06:05:45;984.2;;;15.8;53.4
62980;BME280;49075;53.988;27.678;2023-09-19T06:10:51;984.3;;;15.5;53.7
62980;BME280;49075;53.988;27.678;2023-09-19T06:16:11;984.3;;;15.9;53.4
62980;BME280;49075;53.988;27.678;2023-09-19T06:21:17;984.2;;;16.7;51.7
62980;BME280;49075;53.988;27.678;2023-09-19T06:25:59;984.3;;;16.9;51.4
62980;BME280;49075;53.988;27.678;2023-09-19T06:31:05;984.2;;;17.9;49.1
62980;BME280;49075;53.988;27.678;2023-09-19T06:35:53;984.2;;;18.3;48
62980;BME280;49075;53.988;27.678;2023-09-19T06:40:51;984.1;;;19;46.7
62980;BME280;49075;53.988;27.678;2023-09-19T06:46:09;984.1;;;20;45.4
62980;BME280;49075;53.988;27.678;2023-09-19T06:50:49;984.1;;;20.3;44
62980;BME280;49075;53.988;27.678;2023-09-19T06:56:03;984.2;;;19.4;45.5
62980;BME280;49075;53.988;27.678;2023-09-19T07:01:07;984;;;18.9;46
62980;BME280;49075;53.988;27.678;2023-09-19T07:05:57;984;;;20.2;44.4
62980;BME280;49075;53.988;27.678;2023-09-19T07:10:57;984;;;20.4;43
62980;BME280;49075;53.988;27.678;2023-09-19T07:16:07;984;;;19.2;45.3
62980;BME280;49075;53.988;27.678;2023-09-19T07:20:56;984;;;19.4;45.1
62980;BME280;49075;53.988;27.678;2023-09-19T07:25:45;983.9;;;20.8;43.2
62980;BME280;49075;53.988;27.678;2023-09-19T07:30:43;983.9;;;21.9;40.7
62980;BME280;49075;53.988;27.678;2023-09-19T07:36:09;983.9;;;22.4;39.9
62980;BME280;49075;53.988;27.678;2023-09-19T07:41:21;983.9;;;22.4;38.7
62980;BME280;49075;53.988;27.678;2023-09-19T07:45:45;983.8;;;22.3;39.3
62980;BME280;49075;53.988;27.678;2023-09-19T07:51:03;983.9;;;21.7;39.8
62980;BME280;49075;53.988;27.678;2023-09-19T07:55:45;983.8;;;22.2;39.7
62980;BME280;49075;53.988;27.678;2023-09-19T08:01:17;983.7;;;23.2;38
62980;BME280;49075;53.988;27.678;2023-09-19T08:05:51;983.6;;;23.1;38.4
62980;BME280;49075;53.988;27.678;2023-09-19T08:11:09;983.5;;;22.6;38.3
62980;BME280;49075;53.988;27.678;2023-09-19T08:16:03;983.4;;;23.7;37.5
62980;BME280;49075;53.988;27.678;2023-09-19T08:21:01;983.3;;;24.1;36.6
62980;BME280;49075;53.988;27.678;2023-09-19T08:26:09;983.3;;;24.5;36.2
62980;BME280;49075;53.988;27.678;2023-09-19T08:30:45;983.4;;;23.9;36.6
62980;BME280;49075;53.988;27.678;2023-09-19T08:36:03;983.3;;;23.6;37.2
62980;BME280;49075;53.988;27.678;2023-09-19T08:40:45;983.3;;;23.3;37.3
62980;BME280;49075;53.988;27.678;2023-09-19T08:46:07;983.2;;;23.8;36.6
62980;BME280;49075;53.988;27.678;2023-09-19T08:50:47;983.1;;;24.2;36.1
62980;BME280;49075;53.988;27.678;2023-09-19T08:55:51;983.1;;;24.5;35.5
62980;BME280;49075;53.988;27.678;2023-09-19T09:00:45;983.1;;;24.1;36
62980;BME280;49075;53.988;27.678;2023-09-19T09:05:45;983.1;;;24.4;35.7
62980;BME280;49075;53.988;27.678;2023-09-19T09:11:03;983.2;;;24.1;36.2
62980;BME280;49075;53.988;27.678;2023-09-19T09:15:51;983.1;;;23.7;36.6
62980;BME280;49075;53.988;27.678;2023-09-19T09:21:03;983;;;23.8;36.5
62980;BME280;49075;53.988;27.678;2023-09-19T09:26:03;983;;;23.9;36.2
62980;BME280;49075;53.988;27.678;2023-09-19T09:31:22;983;;;23.8;36.1
62980;BME280;49075;53.988;27.678;2023-09-19T09:36:11;982.9;;;24.5;35.8
62980;BME280;49075;53.988;27.678;2023-09-19T09:41:39;982.9;;;24.2;36.1
62980;BME280;49075;53.988;27.678;2023-09-19T09:46:07;982.8;;;24.7;35.4
62980;BME280;49075;53.988;27.678;2023-09-19T09:50:59;982.7;;;24.8;35.1
62980;BME280;49075;53.988;27.678;2023-09-19T09:55:59;982.8;;;24.8;34.7
62980;BME280;49075;53.988;27.678;2023-09-19T10:00:52;982.6;;;24.9;34.6
62980;BME280;49075;53.988;27.678;2023-09-19T10:05:45;982.6;;;25;34.5
62980;BME280;49075;53.988;27.678;2023-09-19T10:11:15;982.7;;;24.8;34.4
62980;BME280;49075;53.988;27.678;2023-09-19T10:16:04;982.6;;;24.8;34.1
62980;BME280;49075;53.988;27.678;2023-09-19T10:21:03;982.6;;;25.1;33.8
62980;BME280;49075;53.988;27.678;2023-09-19T10:25:45;982.5;;;25.8;32.9
62980;BME280;49075;53.988;27.678;2023-09-19T10:30:59;982.5;;;25.7;32.8
62980;BME280;49075;53.988;27.678;2023-09-19T10:35:46;982.5;;;25;33.6
62980;BME280;49075;53.988;27.678;2023-09-19T10:40:47;982.4;;;24.9;33.6
62980;BME280;49075;53.988;27.678;2023-09-19T10:45:45;982.4;;;24.8;33.2
62980;BME280;49075;53.988;27.678;2023-09-19T10:50:46;982.3;;;25.1;32.8
62980;BME280;49075;53.988;27.678;2023-09-19T10:56:09;982.3;;;25.1;32.5
62980;BME280;49075;53.988;27.678;2023-09-19T11:01:03;982.3;;;24.7;32.8
62980;BME280;49075;53.988;27.678;2023-09-19T11:06:00;982.3;;;25.3;32.1
62980;BME280;49075;53.988;27.678;2023-09-19T11:11:03;982.3;;;24.7;32.4
62980;BME280;49075;53.988;27.678;2023-09-19T11:16:03;982.4;;;24.5;32.3
62980;BME280;49075;53.988;27.678;2023-09-19T11:21:32;982.3;;;24.2;32.6
62980;BME280;49075;53.988;27.678;2023-09-19T11:25:57;982.2;;;24.3;32.5
62980;BME280;49075;53.988;27.678;2023-09-19T11:31:00;982.2;;;23.6;33.3
62980;BME280;49075;53.988;27.678;2023-09-19T11:36:01;982.2;;;23.3;33.9
62980;BME280;49075;53.988;27.678;2023-09-19T11:40:45;982.1;;;23.3;33.9
62980;BME280;49075;53.988;27.678;2023-09-19T11:46:06;982.1;;;23.2;33.9
62980;BME280;49075;53.988;27.678;2023-09-19T11:50:51;982.1;;;23.3;33.9
62980;BME280;49075;53.988;27.678;2023-09-19T11:55:45;982.1;;;22.8;34.7
62980;BME280;49075;53.988;27.678;2023-09-19T12:00:59;982.1;;;22.3;35.7
62980;BME280;49075;53.988;27.678;2023-09-19T12:05:45;982;;;22.2;35.7
62980;BME280;49075;53.988;27.678;2023-09-19T12:11:03;982;;;22.1;36.4
62980;BME280;49075;53.988;27.678;2023-09-19T12:15:55;982;;;21.8;37.2
62980;BME280;49075;53.988;27.678;2023-09-19T12:21:28;981.9;;;22.1;37.1
62980;BME280;49075;53.988;27.678;2023-09-19T12:25:59;981.9;;;22.1;37.4
62980;BME280;49075;53.988;27.678;2023-09-19T12:31:05;981.9;;;22.1;37.1
62980;BME280;49075;53.988;27.678;2023-09-19T12:35:45;981.8;;;22.3;37
62980;BME280;49075;53.988;27.678;2023-09-19T12:41:03;981.8;;;22.3;36.8
62980;BME280;49075;53.988;27.678;2023-09-19T12:46:32;981.8;;;22;37.2
62980;BME280;49075;53.988;27.678;2023-09-19T12:51:00;981.7;;;22.3;37
62980;BME280;49075;53.988;27.678;2023-09-19T12:55:59;981.7;;;22.2;37.3
62980;BME280;49075;53.988;27.678;2023-09-19T13:01:17;981.7;;;22;37.5
62980;BME280;49075;53.988;27.678;2023-09-19T13:05:56;981.7;;;21.9;37.6
62980;BME280;49075;53.988;27.678;2023-09-19T13:11:15;981.7;;;21.6;37.8
62980;BME280;49075;53.988;27.678;2023-09-19T13:16:05;981.7;;;21.7;37.9
62980;BME280;49075;53.988;27.678;2023-09-19T13:21:05;981.6;;;22.1;37.8
62980;BME280;49075;53.988;27.678;2023-09-19T13:25:45;981.6;;;22;37.9
62980;BME280;49075;53.988;27.678;2023-09-19T13:30:45;981.5;;;22.1;37.9
62980;BME280;49075;53.988;27.678;2023-09-19T13:35:45;981.4;;;22.1;38.1
62980;BME280;49075;53.988;27.678;2023-09-19T13:40:59;981.5;;;22.2;38.5
62980;BME280;49075;53.988;27.678;2023-09-19T13:46:05;981.5;;;22;39
62980;BME280;49075;53.988;27.678;2023-09-19T13:50:54;981.5;;;21.9;39.7
62980;BME280;49075;53.988;27.678;2023-09-19T13:55:45;981.5;;;21.9;39.6
62980;BME280;49075;53.988;27.678;2023-09-19T14:01:11;981.5;;;21.8;40.1
62980;BME280;49075;53.988;27.678;2023-09-19T14:05:51;981.5;;;21.8;40.3
62980;BME280;49075;53.988;27.678;2023-09-19T14:11:05;981.5;;;21.8;40.6
62980;BME280;49075;53.988;27.678;2023-09-19T14:16:25;981.5;;;21.8;40.6
62980;BME280;49075;53.988;27.678;2023-09-19T14:20:45;981.4;;;21.8;41.1
62980;BME280;49075;53.988;27.678;2023-09-19T14:26:03;981.4;;;21.9;41.3
62980;BME280;49075;53.988;27.678;2023-09-19T14:30:57;981.4;;;21.6;42.2
62980;BME280;49075;53.988;27.678;2023-09-19T14:36:37;981.4;;;21.3;43
62980;BME280;49075;53.988;27.678;2023-09-19T14:40:45;981.3;;;21.3;43.2
62980;BME280;49075;53.988;27.678;2023-09-19T14:46:03;981.3;;;21.5;43
62980;BME280;49075;53.988;27.678;2023-09-19T14:51:09;981.3;;;21.3;43.9
62980;BME280;49075;53.988;27.678;2023-09-19T14:55:51;981.3;;;21.2;44.3
62980;BME280;49075;53.988;27.678;2023-09-19T15:00:45;981.2;;;21.3;44.3
62980;BME280;49075;53.988;27.678;2023-09-19T15:06:23;981.3;;;21.2;44.6
62980;BME280;49075;53.988;27.678;2023-09-19T15:11:03;981.2;;;21;45.2
62980;BME280;49075;53.988;27.678;2023-09-19T15:15:45;981.2;;;21;45.2
62980;BME280;49075;53.988;27.678;2023-09-19T15:20:45;981.3;;;20.7;46.4
62980;BME280;49075;53.988;27.678;2023-09-19T15:25:47;981.3;;;20.6;46.5
62980;BME280;49075;53.988;27.678;2023-09-19T15:31:08;981.3;;;20.6;46.6
62980;BME280;49075;53.988;27.678;2023-09-19T15:35:45;981.3;;;20.3;47.4
62980;BME280;49075;53.988;27.678;2023-09-19T15:40:59;981.4;;;20.2;47.7
62980;BME280;49075;53.988;27.678;2023-09-19T15:45:51;981.3;;;20.2;47.9
62980;BME280;49075;53.988;27.678;2023-09-19T15:51:02;981.3;;;20.1;48
62980;BME280;49075;53.988;27.678;2023-09-19T15:56:31;981.4;;;20;48.7
62980;BME280;49075;53.988;27.678;2023-09-19T16:01:09;981.4;;;20;48.7
62980;BME280;49075;53.988;27.678;2023-09-19T16:06:07;981.4;;;19.9;49
62980;BME280;49075;53.988;27.678;2023-09-19T16:11:26;981.5;;;19.8;49.1
62980;BME280;49075;53.988;27.678;2023-09-19T16:15:45;981.5;;;19.6;50.1
62980;BME280;49075;53.988;27.678;2023-09-19T16:21:31;981.5;;;19.6;50.1
62980;BME280;49075;53.988;27.678;2023-09-19T16:26:06;981.5;;;19.6;50.2
62980;BME280;49075;53.988;27.678;2023-09-19T16:31:09;981.5;;;19.6;50.4
62980;BME280;49075;53.988;27.678;2023-09-19T16:36:07;981.5;;;19.5;50.8
62980;BME280;49075;53.988;27.678;2023-09-19T16:41:03;981.5;;;19.4;51.1
62980;BME280;49075;53.988;27.678;2023-09-19T16:46:04;981.6;;;19.3;51.4
62980;BME280;49075;53.988;27.678;2023-09-19T16:50:45;981.6;;;19.2;51.6
62980;BME280;49075;53.988;27.678;2023-09-19T16:56:04;981.5;;;19.2;52.1
62980;BME280;49075;53.988;27.678;2023-09-19T17:00:45;981.6;;;19.1;52.1
62980;BME280;49075;53.988;27.678;2023-09-19T17:05:51;981.6;;;19.1;52.4
62980;BME280;49075;53.988;27.678;2023-09-19T17:11:09;981.6;;;19.1;52.6
62980;BME280;49075;53.988;27.678;2023-09-19T17:15:45;981.6;;;19;53.2
62980;BME280;49075;53.988;27.678;2023-09-19T17:20:45;981.7;;;18.9;53.3
62980;BME280;49075;53.988;27.678;2023-09-19T17:26:06;981.7;;;18.8;54
62980;BME280;49075;53.988;27.678;2023-09-19T17:31:08;981.7;;;18.9;53.7
62980;BME280;49075;53.988;27.678;2023-09-19T17:36:05;981.7;;;18.9;54
62980;BME280;49075;53.988;27.678;2023-09-19T17:40:45;981.7;;;18.7;54.6
62980;BME280;49075;53.988;27.678;2023-09-19T17:46:07;981.7;;;18.7;54.7
62980;BME280;49075;53.988;27.678;2023-09-19T17:50:45;981.7;;;18.8;54.3
62980;BME280;49075;53.988;27.678;2023-09-19T17:55:59;981.8;;;18.6;55.1
62980;BME280;49075;53.988;27.678;2023-09-19T18:00:45;981.8;;;18.7;54.9
62980;BME280;49075;53.988;27.678;2023-09-19T18:05:50;981.8;;;18.6;55.4
62980;BME280;49075;53.988;27.678;2023-09-19T18:10:55;981.8;;;18.7;55.2
62980;BME280;49075;53.988;27.678;2023-09-19T18:15:45;981.8;;;18.6;55.5
62980;BME280;49075;53.988;27.678;2023-09-19T18:20:45;981.8;;;18.6;55.6
62980;BME280;49075;53.988;27.678;2023-09-19T18:26:15;981.8;;;18.6;55.8
62980;BME280;49075;53.988;27.678;2023-09-19T18:30:51;981.8;;;18.5;56.2
62980;BME280;49075;53.988;27.678;2023-09-19T18:36:31;981.8;;;18.5;56.4
62980;BME280;49075;53.988;27.678;2023-09-19T18:40:45;981.8;;;18.5;56.4
62980;BME280;49075;53.988;27.678;2023-09-19T18:45:59;981.8;;;18.4;56.8
62980;BME280;49075;53.988;27.678;2023-09-19T18:50:45;981.8;;;18.4;56.5
62980;BME280;49075;53.988;27.678;2023-09-19T18:55:45;981.8;;;18.4;57
62980;BME280;49075;53.988;27.678;2023-09-19T19:00:45;981.8;;;18.3;57.5
62980;BME280;49075;53.988;27.678;2023-09-19T19:05:45;981.8;;;18.2;57.5
62980;BME280;49075;53.988;27.678;2023-09-19T19:10:53;981.8;;;18.1;58.1
62980;BME280;49075;53.988;27.678;2023-09-19T19:16:03;981.8;;;18.1;58.2
62980;BME280;49075;53.988;27.678;2023-09-19T19:20:45;981.7;;;18.1;58.4
62980;BME280;49075;53.988;27.678;2023-09-19T19:26:08;981.7;;;18;58.6
62980;BME280;49075;53.988;27.678;2023-09-19T19:30:45;981.7;;;18;58.8
62980;BME280;49075;53.988;27.678;2023-09-19T19:35:45;981.7;;;17.9;59.1
62980;BME280;49075;53.988;27.678;2023-09-19T19:40:57;981.7;;;17.8;59.4
62980;BME280;49075;53.988;27.678;2023-09-19T19:45:52;981.7;;;17.8;59.2
62980;BME280;49075;53.988;27.678;2023-09-19T19:50:45;981.7;;;17.8;59.1
62980;BME280;49075;53.988;27.678;2023-09-19T19:56:41;981.6;;;17.9;58.7
62980;BME280;49075;53.988;27.678;2023-09-19T20:00:54;981.7;;;17.8;58.8
62980;BME280;49075;53.988;27.678;2023-09-19T20:05:45;981.8;;;17.8;58.6
62980;BME280;49075;53.988;27.678;2023-09-19T20:10:45;981.7;;;17.7;59
62980;BME280;49075;53.988;27.678;2023-09-19T20:15:59;981.7;;;17.7;58.8
62980;BME280;49075;53.988;27.678;2023-09-19T20:20:45;981.8;;;17.6;58.9
62980;BME280;49075;53.988;27.678;2023-09-19T20:25:46;981.8;;;17.5;58.9
62980;BME280;49075;53.988;27.678;2023-09-19T20:31:25;981.8;;;17.5;58.9
62980;BME280;49075;53.988;27.678;2023-09-19T20:35:45;981.8;;;17.5;58.8
62980;BME280;49075;53.988;27.678;2023-09-19T20:40:45;981.8;;;17.4;59
62980;BME280;49075;53.988;27.678;2023-09-19T20:46:05;981.8;;;17.5;58.7
62980;BME280;49075;53.988;27.678;2023-09-19T20:51:04;981.9;;;17.3;59
62980;BME280;49075;53.988;27.678;2023-09-19T20:55:58;981.9;;;17.4;58.9
62980;BME280;49075;53.988;27.678;2023-09-19T21:01:17;981.9;;;17.3;58.8
62980;BME280;49075;53.988;27.678;2023-09-19T21:06:00;982;;;17.4;58.6
62980;BME280;49075;53.988;27.678;2023-09-19T21:11:12;982;;;17.4;58.5
62980;BME280;49075;53.988;27.678;2023-09-19T21:15:45;982;;;17.4;58.3
62980;BME280;49075;53.988;27.678;2023-09-19T21:20:55;982;;;17.5;58.1
62980;BME280;49075;53.988;27.678;2023-09-19T21:26:15;981.9;;;17.5;57.9
62980;BME280;49075;53.988;27.678;2023-09-19T21:30:57;981.9;;;17.5;57.7
62980;BME280;49075;53.988;27.678;2023-09-19T21:35:45;981.9;;;17.4;57.9
62980;BME280;49075;53.988;27.678;2023-09-19T21:40:45;981.9;;;17.4;57.8
62980;BME280;49075;53.988;27.678;2023-09-19T21:45:45;981.9;;;17.4;57.9
62980;BME280;49075;53.988;27.678;2023-09-19T21:51:29;981.9;;;17.4;57.7
62980;BME280;49075;53.988;27.678;2023-09-19T21:56:23;981.9;;;17.4;57.8
62980;BME280;49075;53.988;27.678;2023-09-19T22:01:41;981.8;;;17.3;57.7
62980;BME280;49075;53.988;27.678;2023-09-19T22:05:53;981.8;;;17.3;57.8
62980;BME280;49075;53.988;27.678;2023-09-19T22:10:53;981.7;;;17.2;58
62980;BME280;49075;53.988;27.678;2023-09-19T22:16:03;981.7;;;17.3;57.8
62980;BME280;49075;53.988;27.678;2023-09-19T22:20:54;981.7;;;17.2;57.8
62980;BME280;49075;53.988;27.678;2023-09-19T22:25:45;981.8;;;17.1;58.2
62980;BME280;49075;53.988;27.678;2023-09-19T22:30:53;981.7;;;17.1;58.2
62980;BME280;49075;53.988;27.678;2023-09-19T22:36:04;981.8;;;17.1;58
62980;BME280;49075;53.988;27.678;2023-09-19T22:41:17;981.7;;;17.1;58.2
62980;BME280;49075;53.988;27.678;2023-09-19T22:45:59;981.7;;;17.2;58.2
62980;BME280;49075;53.988;27.678;2023-09-19T22:50:59;981.8;;;17.2;58.2
62980;BME280;49075;53.988;27.678;2023-09-19T22:55:53;981.7;;;17.2;58.1
62980;BME280;49075;53.988;27.678;2023-09-19T23:01:07;981.7;;;17.1;58.5
62980;BME280;49075;53.988;27.678;2023-09-19T23:05:57;981.8;;;17.1;58.6
62980;BME280;49075;53.988;27.678;2023-09-19T23:11:20;981.8;;;17;59.3
62980;BME280;49075;53.988;27.678;2023-09-19T23:15:53;981.8;;;16.9;59.4
62980;BME280;49075;53.988;27.678;2023-09-19T23:21:03;981.8;;;16.8;60.3
62980;BME280;49075;53.988;27.678;2023-09-19T23:25:55;981.8;;;16.6;61
62980;BME280;49075;53.988;27.678;2023-09-19T23:30:45;981.8;;;16.5;62.3
62980;BME280;49075;53.988;27.678;2023-09-19T23:36:07;981.8;;;16.5;62.1
62980;BME280;49075;53.988;27.678;2023-09-19T23:41:09;981.8;;;16.4;63
62980;BME280;49075;53.988;27.678;2023-09-19T23:45:55;981.9;;;16.4;63.4
62980;BME280;49075;53.988;27.678;2023-09-19T23:51:05;981.9;;;16.2;64.7
62980;BME280;49075;53.988;27.678;2023-09-19T23:55:55;982;;;16.2;64.9
